sensor_id;sensor_type;location;lat;lon;timestamp;pressure;altitude;pressure_sealevel;temperature;humidity
50133;BME280;46340;53.148;8.204;2022-08-01T00:00:06;101344.50;;;16.57;100.00
50133;BME280;46340;53.148;8.204;2022-08-01T00:02:31;101345.72;;;16.56;100.00
50133;BME280;46340;53.148;8.204;2022-08-01T00:04:56;101345.34;;;16.58;100.00
50133;BME280;46340;53.148;8.204;2022-08-01T00:07:22;101347.66;;;16.55;100.00
50133;BME280;46340;53.148;8.204;2022-08-01T00:09:47;101348.13;;;16.58;100.00
50133;BME280;46340;53.148;8.204;2022-08-01T00:12:12;101352.06;;;16.57;100.00
50133;BME280;46340;53.148;8.204;2022-08-01T00:14:37;101339.75;;;16.58;100.00
50133;BME280;46340;53.148;8.204;2022-08-01T00:17:03;101348.91;;;16.58;100.00
50133;BME280;46340;53.148;8.204;2022-08-01T00:19:28;101353.69;;;16.58;100.00
50133;BME280;46340;53.148;8.204;2022-08-01T00:21:53;101346.50;;;16.57;100.00
50133;BME280;46340;53.148;8.204;2022-08-01T00:24:18;101350.09;;;16.57;100.00
50133;BME280;46340;53.148;8.204;2022-08-01T00:26:44;101351.28;;;16.56;100.00
50133;BME280;46340;53.148;8.204;2022-08-01T00:29:09;101350.09;;;16.57;100.00
50133;BME280;46340;53.148;8.204;2022-08-01T00:31:34;101352.94;;;16.61;100.00
50133;BME280;46340;53.148;8.204;2022-08-01T00:33:59;101350.16;;;16.61;100.00
50133;BME280;46340;53.148;8.204;2022-08-01T00:36:24;101350.19;;;16.64;100.00
50133;BME280;46340;53.148;8.204;2022-08-01T00:38:50;101363.72;;;16.62;100.00
50133;BME280;46340;53.148;8.204;2022-08-01T00:41:15;101350.97;;;16.61;100.00
50133;BME280;46340;53.148;8.204;2022-08-01T00:43:40;101361.28;;;16.61;100.00
50133;BME280;46340;53.148;8.204;2022-08-01T00:46:05;101363.66;;;16.59;100.00
50133;BME280;46340;53.148;8.204;2022-08-01T00:48:31;101361.25;;;16.57;100.00
50133;BME280;46340;53.148;8.204;2022-08-01T00:50:56;101363.66;;;16.59;100.00
50133;BME280;46340;53.148;8.204;2022-08-01T00:53:21;101362.50;;;16.60;100.00
50133;BME280;46340;53.148;8.204;2022-08-01T00:55:47;101367.28;;;16.63;100.00
50133;BME280;46340;53.148;8.204;2022-08-01T00:58:13;101365.28;;;16.60;100.00
50133;BME280;46340;53.148;8.204;2022-08-01T01:00:38;101370.47;;;16.61;100.00
50133;BME280;46340;53.148;8.204;2022-08-01T01:03:03;101363.66;;;16.59;100.00
50133;BME280;46340;53.148;8.204;2022-08-01T01:05:29;101366.00;;;16.57;100.00
50133;BME280;46340;53.148;8.204;2022-08-01T01:07:59;101360.88;;;16.59;100.00
50133;BME280;46340;53.148;8.204;2022-08-01T01:13:02;101367.25;;;16.59;100.00
50133;BME280;46340;53.148;8.204;2022-08-01T01:15:40;101365.28;;;16.60;100.00
50133;BME280;46340;53.148;8.204;2022-08-01T01:18:11;101360.88;;;16.59;100.00
50133;BME280;46340;53.148;8.204;2022-08-01T01:20:39;101368.50;;;16.62;100.00
50133;BME280;46340;53.148;8.204;2022-08-01T01:31:23;101377.06;;;16.49;100.00
50133;BME280;46340;53.148;8.204;2022-08-01T01:33:49;101375.38;;;16.45;100.00
50133;BME280;46340;53.148;8.204;2022-08-01T01:36:15;101378.16;;;16.45;100.00
50133;BME280;46340;53.148;8.204;2022-08-01T01:38:42;101378.47;;;16.40;100.00
50133;BME280;46340;53.148;8.204;2022-08-01T01:41:13;101382.34;;;16.35;100.00
50133;BME280;46340;53.148;8.204;2022-08-01T01:43:39;101380.81;;;16.38;100.00
50133;BME280;46340;53.148;8.204;2022-08-01T01:46:04;101387.84;;;16.31;100.00
50133;BME280;46340;53.148;8.204;2022-08-01T01:48:30;101391.41;;;16.28;100.00
50133;BME280;46340;53.148;8.204;2022-08-01T01:50:57;101385.44;;;16.30;100.00
50133;BME280;46340;53.148;8.204;2022-08-01T01:53:24;101391.34;;;16.25;100.00
50133;BME280;46340;53.148;8.204;2022-08-01T01:55:52;101388.16;;;16.26;100.00
50133;BME280;46340;53.148;8.204;2022-08-01T01:58:19;101394.13;;;16.25;100.00
50133;BME280;46340;53.148;8.204;2022-08-01T02:00:45;101391.34;;;16.25;100.00
50133;BME280;46340;53.148;8.204;2022-08-01T02:03:12;101398.94;;;16.28;100.00
50133;BME280;46340;53.148;8.204;2022-08-01T02:05:38;101399.75;;;16.28;100.00
50133;BME280;46340;53.148;8.204;2022-08-01T02:08:03;101394.56;;;16.27;100.00
50133;BME280;46340;53.148;8.204;2022-08-01T02:10:29;101396.09;;;16.24;100.00
50133;BME280;46340;53.148;8.204;2022-08-01T02:12:55;101393.31;;;16.24;100.00
50133;BME280;46340;53.148;8.204;2022-08-01T02:15:22;101394.13;;;16.25;100.00
50133;BME280;46340;53.148;8.204;2022-08-01T02:17:48;101391.34;;;16.25;100.00
50133;BME280;46340;53.148;8.204;2022-08-01T02:20:15;101385.44;;;16.30;100.00
50133;BME280;46340;53.148;8.204;2022-08-01T02:22:42;101392.88;;;16.22;100.00
50133;BME280;46340;53.148;8.204;2022-08-01T02:25:17;101387.53;;;16.13;100.00
50133;BME280;46340;53.148;8.204;2022-08-01T02:30:15;101400.38;;;15.98;100.00
50133;BME280;46340;53.148;8.204;2022-08-01T02:32:45;101405.06;;;15.94;100.00
50133;BME280;46340;53.148;8.204;2022-08-01T02:35:11;101395.56;;;15.95;100.00
50133;BME280;46340;53.148;8.204;2022-08-01T02:37:38;101397.44;;;15.91;100.00
50133;BME280;46340;53.148;8.204;2022-08-01T02:40:04;101399.78;;;15.89;100.00
50133;BME280;46340;53.148;8.204;2022-08-01T02:42:30;101405.72;;;15.88;100.00
50133;BME280;46340;53.148;8.204;2022-08-01T02:44:56;101393.66;;;15.80;100.00
50133;BME280;46340;53.148;8.204;2022-08-01T02:47:23;101399.50;;;15.75;100.00
50133;BME280;46340;53.148;8.204;2022-08-01T02:49:50;101407.38;;;15.73;100.00
50133;BME280;46340;53.148;8.204;2022-08-01T02:52:17;101400.94;;;15.69;100.00
50133;BME280;46340;53.148;8.204;2022-08-01T02:54:47;101404.44;;;15.66;100.00
50133;BME280;46340;53.148;8.204;2022-08-01T02:57:13;101411.91;;;15.61;100.00
50133;BME280;46340;53.148;8.204;2022-08-01T02:59:39;101417.47;;;15.61;100.00
50133;BME280;46340;53.148;8.204;2022-08-01T03:02:06;101419.09;;;15.63;100.00
50133;BME280;46340;53.148;8.204;2022-08-01T03:04:33;101420.69;;;15.64;100.00
50133;BME280;46340;53.148;8.204;2022-08-01T03:07:00;101426.25;;;15.64;100.00
50133;BME280;46340;53.148;8.204;2022-08-01T03:09:27;101427.06;;;15.64;100.00
50133;BME280;46340;53.148;8.204;2022-08-01T03:11:53;101427.81;;;15.61;100.00
50133;BME280;46340;53.148;8.204;2022-08-01T03:14:21;101425.47;;;15.63;100.00
50133;BME280;46340;53.148;8.204;2022-08-01T03:16:48;101430.66;;;15.65;100.00
50133;BME280;46340;53.148;8.204;2022-08-01T03:19:14;101435.81;;;15.63;100.00
50133;BME280;46340;53.148;8.204;2022-08-01T03:21:41;101440.63;;;15.66;100.00
50133;BME280;46340;53.148;8.204;2022-08-01T03:24:08;101446.19;;;15.66;100.00
50133;BME280;46340;53.148;8.204;2022-08-01T03:26:35;101444.88;;;15.59;100.00
50133;BME280;46340;53.148;8.204;2022-08-01T03:29:05;101454.47;;;15.62;100.00
50133;BME280;46340;53.148;8.204;2022-08-01T03:31:34;101448.53;;;15.64;100.00
50133;BME280;46340;53.148;8.204;2022-08-01T03:34:00;101456.88;;;15.64;100.00
50133;BME280;46340;53.148;8.204;2022-08-01T03:36:26;101458.44;;;15.61;100.00
50133;BME280;46340;53.148;8.204;2022-08-01T03:38:54;101461.66;;;15.63;100.00
50133;BME280;46340;53.148;8.204;2022-08-01T03:41:21;101467.56;;;15.61;100.00
50133;BME280;46340;53.148;8.204;2022-08-01T03:43:52;101460.31;;;15.57;100.00
50133;BME280;46340;53.148;8.204;2022-08-01T03:46:26;101465.06;;;15.56;100.00
50133;BME280;46340;53.148;8.204;2022-08-01T03:48:54;101468.56;;;15.53;100.00
50133;BME280;46340;53.148;8.204;2022-08-01T03:51:20;101462.13;;;15.49;100.00
50133;BME280;46340;53.148;8.204;2022-08-01T03:53:46;101461.63;;;15.44;100.00
50133;BME280;46340;53.148;8.204;2022-08-01T03:56:12;101469.06;;;15.39;100.00
50133;BME280;46340;53.148;8.204;2022-08-01T03:58:40;101464.22;;;15.36;100.00
50133;BME280;46340;53.148;8.204;2022-08-01T04:01:06;101463.84;;;15.38;100.00
50133;BME280;46340;53.148;8.204;2022-08-01T04:03:34;101473.38;;;15.37;100.00
50133;BME280;46340;53.148;8.204;2022-08-01T04:05:59;101474.44;;;15.32;100.00
50133;BME280;46340;53.148;8.204;2022-08-01T04:08:33;101483.59;;;15.33;100.00
50133;BME280;46340;53.148;8.204;2022-08-01T04:10:58;101482.34;;;15.30;100.00
50133;BME280;46340;53.148;8.204;2022-08-01T04:13:24;101495.00;;;15.28;100.00
50133;BME280;46340;53.148;8.204;2022-08-01T04:15:49;101494.56;;;15.26;100.00
50133;BME280;46340;53.148;8.204;2022-08-01T04:18:14;101488.56;;;15.23;100.00
50133;BME280;46340;53.148;8.204;2022-08-01T04:20:39;101497.88;;;15.15;100.00
50133;BME280;46340;53.148;8.204;2022-08-01T04:23:06;101501.75;;;15.11;100.00
50133;BME280;46340;53.148;8.204;2022-08-01T04:25:32;101495.28;;;15.07;100.00
50133;BME280;46340;53.148;8.204;2022-08-01T04:27:59;101496.47;;;15.06;100.00
50133;BME280;46340;53.148;8.204;2022-08-01T04:30:26;101494.94;;;15.08;100.00
50133;BME280;46340;53.148;8.204;2022-08-01T04:32:52;101497.34;;;15.10;100.00
50133;BME280;46340;53.148;8.204;2022-08-01T04:35:19;101503.28;;;15.08;100.00
50133;BME280;46340;53.148;8.204;2022-08-01T04:37:45;101497.00;;;15.11;100.00
50133;BME280;46340;53.148;8.204;2022-08-01T04:40:13;101506.97;;;15.12;100.00
50133;BME280;46340;53.148;8.204;2022-08-01T04:42:38;101509.44;;;15.01;100.00
50133;BME280;46340;53.148;8.204;2022-08-01T04:45:04;101511.97;;;15.07;100.00
50133;BME280;46340;53.148;8.204;2022-08-01T04:47:29;101503.19;;;15.04;100.00
50133;BME280;46340;53.148;8.204;2022-08-01T04:49:55;101516.28;;;15.04;100.00
50133;BME280;46340;53.148;8.204;2022-08-01T04:52:21;101514.31;;;15.04;100.00
50133;BME280;46340;53.148;8.204;2022-08-01T04:54:46;101518.38;;;15.07;100.00
50133;BME280;46340;53.148;8.204;2022-08-01T04:57:12;101519.69;;;14.97;100.00
50133;BME280;46340;53.148;8.204;2022-08-01T04:59:37;101520.84;;;14.96;100.00
50133;BME280;46340;53.148;8.204;2022-08-01T05:02:16;101531.25;;;14.99;100.00
50133;BME280;46340;53.148;8.204;2022-08-01T05:04:42;101534.84;;;15.00;100.00
50133;BME280;46340;53.148;8.204;2022-08-01T05:07:08;101527.22;;;14.97;100.00
50133;BME280;46340;53.148;8.204;2022-08-01T05:09:34;101539.34;;;15.04;100.00
50133;BME280;46340;53.148;8.204;2022-08-01T05:12:01;101545.06;;;14.96;100.00
50133;BME280;46340;53.148;8.204;2022-08-01T05:14:27;101542.28;;;14.96;100.00
50133;BME280;46340;53.148;8.204;2022-08-01T05:16:52;101552.31;;;14.84;100.00
50133;BME280;46340;53.148;8.204;2022-08-01T05:19:17;101553.09;;;14.69;100.00
50133;BME280;46340;53.148;8.204;2022-08-01T05:21:43;101560.16;;;14.66;100.00
50133;BME280;46340;53.148;8.204;2022-08-01T05:24:08;101574.66;;;14.60;100.00
50133;BME280;46340;53.148;8.204;2022-08-01T05:26:33;101570.94;;;14.56;100.00
50133;BME280;46340;53.148;8.204;2022-08-01T05:28:59;101575.00;;;14.58;100.00
50133;BME280;46340;53.148;8.204;2022-08-01T05:31:24;101573.53;;;14.48;100.00
50133;BME280;46340;53.148;8.204;2022-08-01T05:33:49;101580.59;;;14.46;100.00
50133;BME280;46340;53.148;8.204;2022-08-01T05:36:14;101587.31;;;14.45;100.00
50133;BME280;46340;53.148;8.204;2022-08-01T05:38:40;101591.69;;;14.46;100.00
50133;BME280;46340;53.148;8.204;2022-08-01T05:41:05;101593.44;;;14.51;100.00
50133;BME280;46340;53.148;8.204;2022-08-01T05:43:30;101591.88;;;14.65;100.00
50133;BME280;46340;53.148;8.204;2022-08-01T05:45:56;101589.22;;;14.57;100.00
50133;BME280;46340;53.148;8.204;2022-08-01T05:48:21;101586.91;;;14.71;100.00
50133;BME280;46340;53.148;8.204;2022-08-01T05:50:46;101592.47;;;14.71;100.00
50133;BME280;46340;53.148;8.204;2022-08-01T05:53:12;101599.97;;;14.71;100.00
50133;BME280;46340;53.148;8.204;2022-08-01T05:55:37;101598.22;;;14.78;100.00
50133;BME280;46340;53.148;8.204;2022-08-01T05:58:03;101601.59;;;14.72;100.00
50133;BME280;46340;53.148;8.204;2022-08-01T06:00:28;101605.75;;;14.78;100.00
50133;BME280;46340;53.148;8.204;2022-08-01T06:02:53;101600.75;;;14.83;100.00
50133;BME280;46340;53.148;8.204;2022-08-01T06:05:18;101603.53;;;14.83;100.00
50133;BME280;46340;53.148;8.204;2022-08-01T06:07:44;101608.28;;;14.83;100.00
50133;BME280;46340;53.148;8.204;2022-08-01T06:10:09;101605.13;;;14.84;100.00
50133;BME280;46340;53.148;8.204;2022-08-01T06:12:34;101603.72;;;14.91;100.00
50133;BME280;46340;53.148;8.204;2022-08-01T06:15:00;101607.50;;;14.98;100.00
50133;BME280;46340;53.148;8.204;2022-08-01T06:17:25;101602.44;;;15.16;100.00
50133;BME280;46340;53.148;8.204;2022-08-01T06:19:50;101607.38;;;15.23;100.00
50133;BME280;46340;53.148;8.204;2022-08-01T06:22:16;101594.00;;;15.29;100.00
50133;BME280;46340;53.148;8.204;2022-08-01T06:24:41;101597.31;;;15.34;100.00
50133;BME280;46340;53.148;8.204;2022-08-01T06:27:06;101598.75;;;15.28;100.00
50133;BME280;46340;53.148;8.204;2022-08-01T06:29:31;101602.63;;;15.55;100.00
50133;BME280;46340;53.148;8.204;2022-08-01T06:31:57;101604.50;;;15.67;100.00
50133;BME280;46340;53.148;8.204;2022-08-01T06:34:22;101598.75;;;15.60;100.00
50133;BME280;46340;53.148;8.204;2022-08-01T06:36:47;101603.44;;;15.56;100.00
50133;BME280;46340;53.148;8.204;2022-08-01T06:39:13;101601.63;;;15.64;100.00
50133;BME280;46340;53.148;8.204;2022-08-01T06:41:38;101602.81;;;15.63;100.00
50133;BME280;46340;53.148;8.204;2022-08-01T06:44:06;101594.34;;;15.27;100.00
50133;BME280;46340;53.148;8.204;2022-08-01T06:46:31;101607.13;;;15.00;100.00
50133;BME280;46340;53.148;8.204;2022-08-01T06:48:56;101605.13;;;14.84;100.00
50133;BME280;46340;53.148;8.204;2022-08-01T06:51:21;101608.31;;;14.71;100.00
50133;BME280;46340;53.148;8.204;2022-08-01T06:53:47;101605.19;;;14.72;100.00
50133;BME280;46340;53.148;8.204;2022-08-01T06:56:12;101613.59;;;14.88;100.00
50133;BME280;46340;53.148;8.204;2022-08-01T06:58:37;101607.13;;;15.00;100.00
50133;BME280;46340;53.148;8.204;2022-08-01T07:01:03;101610.31;;;15.14;100.00
50133;BME280;46340;53.148;8.204;2022-08-01T07:03:30;101612.94;;;15.39;100.00
50133;BME280;46340;53.148;8.204;2022-08-01T07:05:56;101616.00;;;15.50;100.00
50133;BME280;46340;53.148;8.204;2022-08-01T07:08:21;101617.34;;;15.56;100.00
50133;BME280;46340;53.148;8.204;2022-08-01T07:10:46;101609.00;;;15.40;100.00
50133;BME280;46340;53.148;8.204;2022-08-01T07:13:12;101604.59;;;15.39;100.00
50133;BME280;46340;53.148;8.204;2022-08-01T07:15:37;101616.25;;;15.60;100.00
50133;BME280;46340;53.148;8.204;2022-08-01T07:18:02;101621.66;;;16.01;100.00
50133;BME280;46340;53.148;8.204;2022-08-01T07:20:29;101606.16;;;16.20;100.00
50133;BME280;46340;53.148;8.204;2022-08-01T07:22:54;101609.47;;;16.45;100.00
50133;BME280;46340;53.148;8.204;2022-08-01T07:25:19;101608.19;;;16.58;100.00
50133;BME280;46340;53.148;8.204;2022-08-01T07:27:44;101609.56;;;16.68;100.00
50133;BME280;46340;53.148;8.204;2022-08-01T07:30:10;101612.19;;;16.22;100.00
50133;BME280;46340;53.148;8.204;2022-08-01T07:32:35;101614.56;;;15.88;100.00
50133;BME280;46340;53.148;8.204;2022-08-01T07:35:01;101624.81;;;15.68;100.00
50133;BME280;46340;53.148;8.204;2022-08-01T07:37:26;101624.91;;;15.87;100.00
50133;BME280;46340;53.148;8.204;2022-08-01T07:39:52;101626.63;;;15.92;100.00
50133;BME280;46340;53.148;8.204;2022-08-01T07:42:17;101626.50;;;16.04;100.00
50133;BME280;46340;53.148;8.204;2022-08-01T07:44:42;101633.06;;;16.31;100.00
50133;BME280;46340;53.148;8.204;2022-08-01T07:47:08;101636.63;;;16.67;100.00
50133;BME280;46340;53.148;8.204;2022-08-01T07:49:33;101634.41;;;16.92;100.00
50133;BME280;46340;53.148;8.204;2022-08-01T07:51:58;101639.28;;;16.80;100.00
50133;BME280;46340;53.148;8.204;2022-08-01T07:54:23;101637.63;;;16.95;100.00
50133;BME280;46340;53.148;8.204;2022-08-01T07:56:50;101633.50;;;17.08;100.00
50133;BME280;46340;53.148;8.204;2022-08-01T07:59:15;101643.47;;;17.09;100.00
50133;BME280;46340;53.148;8.204;2022-08-01T08:01:40;101647.00;;;17.06;100.00
50133;BME280;46340;53.148;8.204;2022-08-01T08:04:06;101648.00;;;16.78;100.00
50133;BME280;46340;53.148;8.204;2022-08-01T08:06:31;101645.78;;;16.84;100.00
50133;BME280;46340;53.148;8.204;2022-08-01T08:08:56;101653.06;;;16.72;100.00
50133;BME280;46340;53.148;8.204;2022-08-01T08:11:22;101650.22;;;16.49;100.00
50133;BME280;46340;53.148;8.204;2022-08-01T08:13:47;101656.94;;;16.48;100.00
50133;BME280;46340;53.148;8.204;2022-08-01T08:16:12;101662.59;;;16.52;100.00
50133;BME280;46340;53.148;8.204;2022-08-01T08:18:37;101656.72;;;16.57;100.00
50133;BME280;46340;53.148;8.204;2022-08-01T08:21:03;101663.31;;;16.84;100.00
50133;BME280;46340;53.148;8.204;2022-08-01T08:23:28;101655.53;;;17.13;100.00
50133;BME280;46340;53.148;8.204;2022-08-01T08:26:12;101662.44;;;17.00;100.00
50133;BME280;46340;53.148;8.204;2022-08-01T08:28:37;101669.59;;;16.62;100.00
50133;BME280;46340;53.148;8.204;2022-08-01T08:31:02;101668.81;;;16.45;100.00
50133;BME280;46340;53.148;8.204;2022-08-01T08:33:28;101675.88;;;16.59;100.00
50133;BME280;46340;53.148;8.204;2022-08-01T08:35:53;101675.59;;;16.99;100.00
50133;BME280;46340;53.148;8.204;2022-08-01T08:38:19;101677.69;;;17.91;100.00
50133;BME280;46340;53.148;8.204;2022-08-01T08:40:44;101678.38;;;18.38;100.00
50133;BME280;46340;53.148;8.204;2022-08-01T08:43:10;101678.22;;;18.54;100.00
50133;BME280;46340;53.148;8.204;2022-08-01T08:45:35;101675.50;;;18.61;100.00
50133;BME280;46340;53.148;8.204;2022-08-01T08:48:01;101676.72;;;19.24;100.00
50133;BME280;46340;53.148;8.204;2022-08-01T08:50:27;101676.69;;;19.65;100.00
50133;BME280;46340;53.148;8.204;2022-08-01T08:52:52;101675.66;;;19.40;100.00
50133;BME280;46340;53.148;8.204;2022-08-01T08:55:18;101679.34;;;19.88;100.00
50133;BME280;46340;53.148;8.204;2022-08-01T08:57:44;101679.78;;;19.94;100.00
50133;BME280;46340;53.148;8.204;2022-08-01T09:00:09;101684.44;;;19.79;100.00
50133;BME280;46340;53.148;8.204;2022-08-01T09:02:36;101687.59;;;20.22;100.00
50133;BME280;46340;53.148;8.204;2022-08-01T09:05:04;101684.59;;;20.56;100.00
50133;BME280;46340;53.148;8.204;2022-08-01T09:07:30;101681.09;;;20.70;100.00
50133;BME280;46340;53.148;8.204;2022-08-01T09:09:55;101677.50;;;19.66;100.00
50133;BME280;46340;53.148;8.204;2022-08-01T09:12:20;101682.19;;;19.17;100.00
50133;BME280;46340;53.148;8.204;2022-08-01T09:14:46;101685.31;;;18.78;100.00
50133;BME280;46340;53.148;8.204;2022-08-01T09:17:11;101687.16;;;19.31;100.00
50133;BME280;46340;53.148;8.204;2022-08-01T09:22:03;101696.47;;;20.32;100.00
50133;BME280;46340;53.148;8.204;2022-08-01T09:24:29;101698.44;;;20.94;100.00
50133;BME280;46340;53.148;8.204;2022-08-01T09:26:55;101705.63;;;20.91;100.00
50133;BME280;46340;53.148;8.204;2022-08-01T09:29:25;101713.28;;;20.94;100.00
50133;BME280;46340;53.148;8.204;2022-08-01T09:31:51;101717.75;;;20.40;100.00
50133;BME280;46340;53.148;8.204;2022-08-01T09:34:23;101720.94;;;21.04;100.00
50133;BME280;46340;53.148;8.204;2022-08-01T09:36:49;101716.63;;;21.36;100.00
50133;BME280;46340;53.148;8.204;2022-08-01T09:39:19;101720.97;;;21.15;100.00
50133;BME280;46340;53.148;8.204;2022-08-01T09:41:45;101723.41;;;21.24;100.00
50133;BME280;46340;53.148;8.204;2022-08-01T09:44:11;101713.81;;;21.39;100.00
50133;BME280;46340;53.148;8.204;2022-08-01T09:46:43;101731.41;;;21.15;100.00
50133;BME280;46340;53.148;8.204;2022-08-01T09:49:13;101727.97;;;21.86;100.00
50133;BME280;46340;53.148;8.204;2022-08-01T09:51:38;101735.56;;;21.64;100.00
50133;BME280;46340;53.148;8.204;2022-08-01T09:54:04;101732.19;;;21.12;100.00
50133;BME280;46340;53.148;8.204;2022-08-01T09:56:40;101736.84;;;20.75;100.00
50133;BME280;46340;53.148;8.204;2022-08-01T09:59:08;101734.22;;;21.15;100.00
50133;BME280;46340;53.148;8.204;2022-08-01T10:01:49;101738.13;;;20.92;100.00
50133;BME280;46340;53.148;8.204;2022-08-01T10:06:40;101729.69;;;20.29;100.00
50133;BME280;46340;53.148;8.204;2022-08-01T10:09:07;101731.63;;;20.18;100.00
50133;BME280;46340;53.148;8.204;2022-08-01T10:11:33;101738.16;;;20.33;100.00
50133;BME280;46340;53.148;8.204;2022-08-01T10:14:01;101729.75;;;21.03;100.00
50133;BME280;46340;53.148;8.204;2022-08-01T10:16:27;101730.72;;;21.47;100.00
50133;BME280;46340;53.148;8.204;2022-08-01T10:18:53;101734.88;;;20.90;100.00
50133;BME280;46340;53.148;8.204;2022-08-01T10:21:18;101729.75;;;20.33;100.00
50133;BME280;46340;53.148;8.204;2022-08-01T10:23:44;101727.53;;;20.08;100.00
50133;BME280;46340;53.148;8.204;2022-08-01T10:26:10;101731.19;;;19.71;100.00
50133;BME280;46340;53.148;8.204;2022-08-01T10:28:37;101729.59;;;20.15;100.00
50133;BME280;46340;53.148;8.204;2022-08-01T10:31:03;101734.22;;;20.48;100.00
50133;BME280;46340;53.148;8.204;2022-08-01T10:33:29;101738.94;;;20.93;100.00
50133;BME280;46340;53.148;8.204;2022-08-01T10:35:54;101733.06;;;21.27;100.00
50133;BME280;46340;53.148;8.204;2022-08-01T10:38:20;101733.47;;;21.32;100.00
50133;BME280;46340;53.148;8.204;2022-08-01T10:40:45;101737.25;;;20.77;100.00
50133;BME280;46340;53.148;8.204;2022-08-01T10:43:11;101735.22;;;22.02;100.00
50133;BME280;46340;53.148;8.204;2022-08-01T10:45:36;101739.06;;;23.12;100.00
50133;BME280;46340;53.148;8.204;2022-08-01T10:48:09;101734.25;;;23.72;94.73
50133;BME280;46340;53.148;8.204;2022-08-01T10:50:44;101737.91;;;24.25;84.64
50133;BME280;46340;53.148;8.204;2022-08-01T10:58:12;101737.94;;;22.70;97.64
50133;BME280;46340;53.148;8.204;2022-08-01T11:00:37;101733.16;;;24.56;98.53
50133;BME280;46340;53.148;8.204;2022-08-01T11:03:03;101738.69;;;25.02;85.94
50133;BME280;46340;53.148;8.204;2022-08-01T11:05:33;101739.75;;;26.00;86.67
50133;BME280;46340;53.148;8.204;2022-08-01T11:08:21;101735.50;;;26.79;81.22
50133;BME280;46340;53.148;8.204;2022-08-01T11:10:45;101738.03;;;26.30;76.24
50133;BME280;46340;53.148;8.204;2022-08-01T11:13:10;101736.94;;;25.73;77.18
50133;BME280;46340;53.148;8.204;2022-08-01T11:15:36;101741.69;;;24.49;92.79
50133;BME280;46340;53.148;8.204;2022-08-01T11:18:02;101743.97;;;23.68;84.82
50133;BME280;46340;53.148;8.204;2022-08-01T11:20:30;101754.88;;;22.59;100.00
50133;BME280;46340;53.148;8.204;2022-08-01T11:30:52;101747.34;;;23.37;95.92
50133;BME280;46340;53.148;8.204;2022-08-01T11:33:47;101746.59;;;24.00;86.33
50133;BME280;46340;53.148;8.204;2022-08-01T11:38:42;101745.25;;;24.57;93.00
50133;BME280;46340;53.148;8.204;2022-08-01T11:43:55;101747.22;;;24.98;70.69
50133;BME280;46340;53.148;8.204;2022-08-01T11:46:44;101754.44;;;25.03;81.57
50133;BME280;46340;53.148;8.204;2022-08-01T11:54:27;101755.66;;;23.66;84.17
50133;BME280;46340;53.148;8.204;2022-08-01T11:56:56;101749.28;;;25.28;74.00
50133;BME280;46340;53.148;8.204;2022-08-01T11:59:22;101744.78;;;26.13;70.64
50133;BME280;46340;53.148;8.204;2022-08-01T12:01:48;101744.38;;;27.91;70.73
50133;BME280;46340;53.148;8.204;2022-08-01T12:04:13;101750.19;;;28.66;55.20
50133;BME280;46340;53.148;8.204;2022-08-01T12:06:38;101750.97;;;29.08;54.54
50133;BME280;46340;53.148;8.204;2022-08-01T12:09:17;101747.75;;;27.86;55.88
50133;BME280;46340;53.148;8.204;2022-08-01T12:11:42;101754.59;;;28.05;56.24
50133;BME280;46340;53.148;8.204;2022-08-01T12:14:08;101741.16;;;28.84;51.46
50133;BME280;46340;53.148;8.204;2022-08-01T12:16:33;101745.69;;;29.23;53.38
50133;BME280;46340;53.148;8.204;2022-08-01T12:18:58;101749.00;;;27.12;60.35
50133;BME280;46340;53.148;8.204;2022-08-01T12:21:24;101758.69;;;26.03;67.37
50133;BME280;46340;53.148;8.204;2022-08-01T12:24:01;101759.22;;;25.67;59.98
50133;BME280;46340;53.148;8.204;2022-08-01T12:26:39;101768.47;;;25.99;63.75
50133;BME280;46340;53.148;8.204;2022-08-01T12:29:05;101746.91;;;28.67;61.27
50133;BME280;46340;53.148;8.204;2022-08-01T12:31:30;101751.47;;;28.32;57.81
50133;BME280;46340;53.148;8.204;2022-08-01T12:33:56;101760.38;;;27.48;63.03
50133;BME280;46340;53.148;8.204;2022-08-01T12:36:28;101754.44;;;27.02;60.93
50133;BME280;46340;53.148;8.204;2022-08-01T12:38:53;101760.28;;;25.50;61.18
50133;BME280;46340;53.148;8.204;2022-08-01T12:41:18;101764.47;;;24.73;73.81
50133;BME280;46340;53.148;8.204;2022-08-01T12:43:45;101758.78;;;25.11;73.51
50133;BME280;46340;53.148;8.204;2022-08-01T12:46:10;101758.44;;;26.65;72.89
50133;BME280;46340;53.148;8.204;2022-08-01T12:48:40;101760.69;;;26.06;56.88
50133;BME280;46340;53.148;8.204;2022-08-01T12:51:06;101753.97;;;26.88;56.56
50133;BME280;46340;53.148;8.204;2022-08-01T12:53:34;101750.38;;;27.04;57.95
50133;BME280;46340;53.148;8.204;2022-08-01T12:55:59;101753.53;;;26.89;61.19
50133;BME280;46340;53.148;8.204;2022-08-01T12:58:30;101759.72;;;25.35;64.47
50133;BME280;46340;53.148;8.204;2022-08-01T13:01:03;101749.53;;;26.87;68.72
50133;BME280;46340;53.148;8.204;2022-08-01T13:03:29;101756.28;;;29.36;50.72
50133;BME280;46340;53.148;8.204;2022-08-01T13:05:55;101750.50;;;29.27;45.15
50133;BME280;46340;53.148;8.204;2022-08-01T13:10:49;101746.34;;;30.17;46.21
50133;BME280;46340;53.148;8.204;2022-08-01T13:13:15;101758.22;;;29.26;54.34
50133;BME280;46340;53.148;8.204;2022-08-01T13:15:42;101756.19;;;29.52;49.84
50133;BME280;46340;53.148;8.204;2022-08-01T13:18:26;101767.69;;;28.94;48.86
50133;BME280;46340;53.148;8.204;2022-08-01T13:21:06;101762.41;;;27.84;54.48